Time;durP1;ratioP1;P1;durP2;ratioP2;P2;SDS_P1;SDS_P2;PMS_P1;PMS_P2;Temp;Humidity;BMP_temperature;BMP_pressure;BME280_temperature;BME280_humidity;BME280_pressure;Samples;Min_cycle;Max_cycle;Signal;HPM_P1;HPM_P2
2021/07/01 00:01:52;;;;;;;1.42;0.60;;;14.30;1.00;;;;;;5058589;28;20504;-80
2021/07/01 00:04:18;;;;;;;0.60;0.52;;;14.30;1.00;;;;;;5063675;28;20067;-80
2021/07/01 00:06:44;;;;;;;1.75;0.80;;;14.30;1.00;;;;;;5060859;28;20047;-79
2021/07/01 00:09:17;;;;;;;0.88;0.60;;;14.20;1.00;;;;;;5067145;28;20322;-79
2021/07/01 00:11:45;;;;;;;1.05;0.57;;;14.30;1.00;;;;;;5067824;28;20040;-80
2021/07/01 00:14:12;;;;;;;0.45;0.45;;;14.30;1.00;;;;;;5071736;28;20028;-80
2021/07/01 00:16:38;;;;;;;0.93;0.52;;;14.30;1.00;;;;;;5059821;28;20025;-80
2021/07/01 00:19:05;;;;;;;1.27;0.63;;;14.40;1.00;;;;;;5043349;28;20477;-80
2021/07/01 00:21:30;;;;;;;0.60;0.60;;;14.40;1.00;;;;;;5037373;28;20033;-82
2021/07/01 00:23:56;;;;;;;2.15;0.52;;;14.30;1.00;;;;;;5036384;28;20021;-82
2021/07/01 00:26:22;;;;;;;1.10;0.50;;;14.30;1.00;;;;;;5036215;28;20072;-81
2021/07/01 00:28:47;;;;;;;0.70;0.70;;;14.30;1.00;;;;;;5041666;28;20029;-81
2021/07/01 00:31:13;;;;;;;1.88;0.40;;;14.30;1.00;;;;;;5038784;28;20030;-83
2021/07/01 00:33:38;;;;;;;0.77;0.50;;;14.30;1.00;;;;;;5038784;28;20046;-81
2021/07/01 00:36:04;;;;;;;0.82;0.50;;;14.30;1.00;;;;;;5053077;28;20024;-81
2021/07/01 00:38:29;;;;;;;0.40;0.40;;;14.40;1.00;;;;;;5062570;28;20025;-81
2021/07/01 00:40:56;;;;;;;0.50;0.50;;;14.30;1.00;;;;;;5048240;28;20025;-79
2021/07/01 00:43:23;;;;;;;1.15;0.50;;;14.30;1.00;;;;;;5036450;28;20047;-82
2021/07/01 00:45:52;;;;;;;0.63;0.40;;;14.30;1.00;;;;;;5031237;28;20112;-82
2021/07/01 00:48:18;;;;;;;0.75;0.50;;;14.30;1.00;;;;;;5066098;28;20029;-82
2021/07/01 00:50:44;;;;;;;1.05;0.40;;;14.30;1.00;;;;;;5038566;28;20029;-82
2021/07/01 00:53:10;;;;;;;0.68;0.50;;;14.40;1.00;;;;;;5063407;28;20081;-81
2021/07/01 00:55:36;;;;;;;1.60;0.50;;;14.30;1.00;;;;;;5060220;28;20037;-82
2021/07/01 00:58:02;;;;;;;1.90;0.40;;;14.40;1.00;;;;;;5061454;28;20032;-81
2021/07/01 01:03:12;;;;;;;0.85;0.50;;;14.30;1.00;;;;;;5064618;28;20047;-81
2021/07/01 01:05:38;;;;;;;0.68;0.50;;;14.40;1.00;;;;;;5073101;28;20024;-82
2021/07/01 01:08:03;;;;;;;0.65;0.50;;;14.40;1.00;;;;;;5056758;28;20025;-82
2021/07/01 01:10:29;;;;;;;0.40;0.40;;;14.40;1.00;;;;;;5048519;28;20052;-81
2021/07/01 01:12:55;;;;;;;0.52;0.47;;;14.40;1.00;;;;;;5066465;28;20052;-81
2021/07/01 01:15:20;;;;;;;1.15;0.82;;;14.30;1.00;;;;;;5058330;28;20061;-82
2021/07/01 01:17:46;;;;;;;0.50;0.47;;;14.30;1.00;;;;;;5060954;28;20029;-82
2021/07/01 01:20:13;;;;;;;0.35;0.30;;;14.30;1.00;;;;;;5057468;28;20083;-82
2021/07/01 01:22:39;;;;;;;1.33;0.50;;;14.30;1.00;;;;;;5059943;28;20027;-82
2021/07/01 01:25:05;;;;;;;2.03;0.60;;;14.40;1.00;;;;;;5051124;28;20028;-82
2021/07/01 01:27:31;;;;;;;0.85;0.57;;;14.40;1.00;;;;;;5063390;28;20020;-82
2021/07/01 01:29:57;;;;;;;0.85;0.50;;;14.50;1.00;;;;;;5067311;28;20050;-83
2021/07/01 01:32:22;;;;;;;0.77;0.68;;;14.40;1.00;;;;;;5057418;28;20387;-82
2021/07/01 01:34:48;;;;;;;0.70;0.60;;;14.30;1.00;;;;;;5051732;28;20045;-81
2021/07/01 01:37:13;;;;;;;0.77;0.50;;;14.30;1.00;;;;;;5057003;28;20474;-81
2021/07/01 01:39:39;;;;;;;0.50;0.50;;;14.20;1.00;;;;;;5045888;28;20100;-82
2021/07/01 01:42:05;;;;;;;1.08;0.70;;;14.30;1.00;;;;;;5061699;28;20021;-82
2021/07/01 01:44:31;;;;;;;2.33;0.70;;;14.40;1.00;;;;;;5055179;28;20031;-82
2021/07/01 01:46:56;;;;;;;0.47;0.47;;;14.30;1.00;;;;;;5072279;28;20429;-82
2021/07/01 01:49:22;;;;;;;0.80;0.80;;;14.30;1.00;;;;;;5047468;28;20033;-82
2021/07/01 01:51:48;;;;;;;1.40;1.02;;;14.20;1.00;;;;;;5037679;28;20029;-82
2021/07/01 01:54:13;;;;;;;0.73;0.60;;;14.30;1.00;;;;;;5037008;28;20028;-82
2021/07/01 01:56:46;;;;;;;0.50;0.50;;;14.30;1.00;;;;;;5056836;28;20097;-81
2021/07/01 01:59:13;;;;;;;0.57;0.40;;;14.30;1.00;;;;;;5059085;28;20443;-81
2021/07/01 02:01:39;;;;;;;1.85;0.40;;;14.40;1.00;;;;;;5038006;28;20056;-82
2021/07/01 02:04:05;;;;;;;1.02;0.47;;;14.50;1.00;;;;;;5057831;28;20032;-82
2021/07/01 02:06:33;;;;;;;0.40;0.30;;;14.40;1.00;;;;;;5058307;28;20077;-81
2021/07/01 02:08:59;;;;;;;0.30;0.30;;;14.40;1.00;;;;;;5065085;28;20054;-82
2021/07/01 02:11:25;;;;;;;0.50;0.50;;;14.40;1.00;;;;;;5063034;28;20024;-81
2021/07/01 02:13:50;;;;;;;0.50;0.50;;;14.40;1.00;;;;;;5052506;28;20029;-82
2021/07/01 02:16:16;;;;;;;0.70;0.40;;;14.40;1.00;;;;;;5037575;28;20028;-81
2021/07/01 02:18:41;;;;;;;0.82;0.40;;;14.40;1.00;;;;;;5050458;28;20021;-81
2021/07/01 02:21:07;;;;;;;1.27;0.30;;;14.40;1.00;;;;;;5057610;28;20017;-81
2021/07/01 02:23:32;;;;;;;2.28;0.30;;;14.40;1.00;;;;;;5058726;28;20031;-80
2021/07/01 02:25:58;;;;;;;0.40;0.40;;;14.40;1.00;;;;;;5060366;28;20071;-82
2021/07/01 02:28:24;;;;;;;1.58;0.50;;;14.30;1.00;;;;;;5038273;28;20025;-81
2021/07/01 02:30:49;;;;;;;0.28;0.28;;;14.40;1.00;;;;;;5062754;28;20071;-81
2021/07/01 02:33:15;;;;;;;0.20;0.20;;;14.50;1.00;;;;;;5056892;28;20055;-82
2021/07/01 02:35:40;;;;;;;1.80;0.43;;;14.40;1.00;;;;;;5038784;28;20032;-81
2021/07/01 02:38:06;;;;;;;1.85;0.25;;;14.40;1.00;;;;;;5063394;28;20040;-82
2021/07/01 02:40:31;;;;;;;1.20;0.30;;;14.40;1.00;;;;;;5052935;28;20465;-82
2021/07/01 02:42:57;;;;;;;0.30;0.30;;;14.40;1.00;;;;;;5066091;28;20111;-82
2021/07/01 02:45:23;;;;;;;1.00;0.40;;;14.30;1.00;;;;;;5048052;28;20128;-82
2021/07/01 02:47:48;;;;;;;0.40;0.30;;;14.40;1.00;;;;;;5063354;28;20366;-82
2021/07/01 02:50:14;;;;;;;2.08;0.40;;;14.30;1.00;;;;;;5050098;28;20039;-82
2021/07/01 02:52:40;;;;;;;1.15;0.40;;;14.30;1.00;;;;;;5065991;28;20483;-81
2021/07/01 02:55:08;;;;;;;2.13;0.40;;;14.30;1.00;;;;;;5066034;28;20108;-83
2021/07/01 02:57:34;;;;;;;0.68;0.40;;;14.40;1.00;;;;;;5057694;28;20035;-82
2021/07/01 03:00:00;;;;;;;0.40;0.40;;;14.40;1.00;;;;;;5063092;28;20029;-83
2021/07/01 03:02:25;;;;;;;0.35;0.35;;;14.30;1.00;;;;;;5048742;28;20394;-81
2021/07/01 03:04:51;;;;;;;0.40;0.40;;;14.40;1.00;;;;;;5048488;28;20033;-82
2021/07/01 03:07:17;;;;;;;0.30;0.30;;;14.30;1.00;;;;;;5047975;28;20037;-82
2021/07/01 03:09:42;;;;;;;0.38;0.38;;;14.40;1.00;;;;;;5059056;28;20029;-82
2021/07/01 03:12:08;;;;;;;1.05;0.30;;;14.40;1.00;;;;;;5039723;28;20028;-82
2021/07/01 03:14:34;;;;;;;0.30;0.30;;;14.30;1.00;;;;;;5057414;28;20029;-83
2021/07/01 03:17:00;;;;;;;0.55;0.40;;;14.30;1.00;;;;;;5039109;28;20013;-83
2021/07/01 03:19:26;;;;;;;0.32;0.32;;;14.30;1.00;;;;;;5049922;28;20078;-82
2021/07/01 03:21:51;;;;;;;0.40;0.30;;;14.30;1.00;;;;;;5056648;28;20021;-81
2021/07/01 03:24:17;;;;;;;0.30;0.30;;;14.30;1.00;;;;;;5066518;28;20316;-82
2021/07/01 03:26:42;;;;;;;1.50;0.25;;;14.40;1.00;;;;;;5042240;28;20398;-82
2021/07/01 03:29:10;;;;;;;0.30;0.30;;;14.30;1.00;;;;;;5063293;28;20017;-83
2021/07/01 03:31:36;;;;;;;0.32;0.20;;;14.20;1.00;;;;;;5028475;28;20029;-82
2021/07/01 03:34:01;;;;;;;3.05;0.30;;;14.20;1.00;;;;;;5052186;28;20070;-82
2021/07/01 03:36:27;;;;;;;0.63;0.30;;;14.20;1.00;;;;;;5058101;28;20029;-83
2021/07/01 03:38:52;;;;;;;1.13;0.57;;;14.30;1.00;;;;;;5063406;28;20029;-82
2021/07/01 03:41:18;;;;;;;0.30;0.30;;;14.30;1.00;;;;;;5070171;28;20025;-82
2021/07/01 03:43:47;;;;;;;0.30;0.30;;;14.30;1.00;;;;;;5068078;28;20103;-82
2021/07/01 03:46:14;;;;;;;1.17;0.43;;;14.40;1.00;;;;;;5062909;28;20017;-82
2021/07/01 03:48:40;;;;;;;0.50;0.50;;;14.40;1.00;;;;;;5062386;28;20017;-82
2021/07/01 03:51:06;;;;;;;0.90;0.57;;;14.50;1.00;;;;;;5067612;28;20044;-81
2021/07/01 03:53:32;;;;;;;0.82;0.57;;;14.50;1.00;;;;;;5052268;28;20028;-80
2021/07/01 03:55:58;;;;;;;0.95;0.60;;;14.40;1.00;;;;;;5068047;28;20085;-81
2021/07/01 03:58:24;;;;;;;1.73;0.32;;;14.40;1.00;;;;;;5063839;28;20032;-83
2021/07/01 04:00:50;;;;;;;0.35;0.35;;;14.60;1.00;;;;;;5061024;28;20024;-82
2021/07/01 04:03:16;;;;;;;0.38;0.38;;;14.40;1.00;;;;;;5059675;28;20025;-83
2021/07/01 04:05:41;;;;;;;1.27;0.50;;;14.40;1.00;;;;;;5059556;28;20055;-82
2021/07/01 04:08:07;;;;;;;0.52;0.43;;;14.40;1.00;;;;;;5069024;28;20108;-81
2021/07/01 04:10:32;;;;;;;0.30;0.30;;;14.40;1.00;;;;;;5064361;28;20045;-82
2021/07/01 04:12:58;;;;;;;0.30;0.30;;;14.30;1.00;;;;;;5051231;28;20037;-82
2021/07/01 04:15:24;;;;;;;4.03;2.55;;;14.30;1.00;;;;;;5065037;28;20025;-82
2021/07/01 04:17:49;;;;;;;0.63;0.50;;;14.30;1.00;;;;;;5070454;28;20028;-82
2021/07/01 04:20:16;;;;;;;0.47;0.38;;;14.40;1.00;;;;;;5071527;28;20024;-81
2021/07/01 04:22:41;;;;;;;0.50;0.50;;;14.50;1.00;;;;;;5060591;28;20121;-83
2021/07/01 04:25:07;;;;;;;0.40;0.40;;;14.50;1.00;;;;;;5069602;28;20536;-82
2021/07/01 04:27:33;;;;;;;1.48;0.50;;;14.50;1.00;;;;;;5069086;28;20051;-81
2021/07/01 04:29:58;;;;;;;0.38;0.38;;;14.60;1.00;;;;;;5053872;28;20162;-82
2021/07/01 04:32:24;;;;;;;3.40;0.80;;;14.60;1.00;;;;;;5070290;28;20040;-83
2021/07/01 04:34:50;;;;;;;0.40;0.40;;;14.60;1.00;;;;;;5048390;28;20060;-81
2021/07/01 04:37:15;;;;;;;0.63;0.40;;;14.60;1.00;;;;;;5068156;28;20185;-83
2021/07/01 04:39:41;;;;;;;1.65;0.60;;;14.70;1.00;;;;;;5068304;28;20028;-82
2021/07/01 04:42:07;;;;;;;0.40;0.35;;;14.60;1.00;;;;;;5069906;28;20441;-82
2021/07/01 04:44:32;;;;;;;2.45;0.40;;;14.70;1.00;;;;;;5062132;28;20032;-82
2021/07/01 04:46:58;;;;;;;0.70;0.60;;;14.60;1.00;;;;;;5067860;28;20114;-82
2021/07/01 04:49:24;;;;;;;0.30;0.30;;;14.70;1.00;;;;;;5051507;28;20119;-82
2021/07/01 04:51:49;;;;;;;0.73;0.50;;;14.70;1.00;;;;;;5064741;28;20032;-82
2021/07/01 04:54:15;;;;;;;0.93;0.70;;;14.80;1.00;;;;;;5068234;28;20033;-83
2021/07/01 04:56:43;;;;;;;0.45;0.40;;;14.80;1.00;;;;;;5047738;28;20119;-81
2021/07/01 04:59:13;;;;;;;0.55;0.43;;;14.80;1.00;;;;;;5044540;28;20044;-81
2021/07/01 05:01:39;;;;;;;2.70;1.30;;;14.80;1.00;;;;;;5073910;28;20025;-82
2021/07/01 05:04:09;;;;;;;0.68;0.52;;;14.80;1.00;;;;;;5053892;28;20496;-82
2021/07/01 05:06:36;;;;;;;0.95;0.40;;;14.80;1.00;;;;;;5067584;28;20025;-83
2021/07/01 05:09:03;;;;;;;0.93;0.60;;;14.90;1.00;;;;;;5057994;28;20019;-83
2021/07/01 05:11:29;;;;;;;0.73;0.40;;;14.90;1.00;;;;;;5061748;28;20017;-81
2021/07/01 05:13:55;;;;;;;0.95;0.50;;;14.90;1.00;;;;;;5043926;28;20100;-82
2021/07/01 05:16:20;;;;;;;0.40;0.40;;;14.90;1.00;;;;;;5057575;28;20029;-81
2021/07/01 05:18:46;;;;;;;0.40;0.40;;;14.90;1.00;;;;;;5063754;28;20025;-81
2021/07/01 05:21:12;;;;;;;7.55;0.52;;;14.90;1.00;;;;;;5071869;28;20028;-82
2021/07/01 05:23:37;;;;;;;0.40;0.40;;;14.80;1.00;;;;;;5063550;28;20047;-82
2021/07/01 05:26:03;;;;;;;0.40;0.30;;;14.80;1.00;;;;;;5065352;28;20033;-80
2021/07/01 05:28:28;;;;;;;2.95;0.80;;;14.80;1.00;;;;;;5064435;28;20028;-82
2021/07/01 05:30:54;;;;;;;0.57;0.55;;;14.90;1.00;;;;;;5060105;28;20116;-83
2021/07/01 05:33:19;;;;;;;1.10;0.60;;;14.90;1.00;;;;;;5065860;28;20088;-82
2021/07/01 05:35:45;;;;;;;0.85;0.50;;;15.00;1.00;;;;;;5065894;28;20056;-81
2021/07/01 05:38:11;;;;;;;3.55;0.82;;;15.10;1.00;;;;;;5070486;28;20052;-83
2021/07/01 05:40:37;;;;;;;0.30;0.30;;;15.10;1.00;;;;;;5067948;28;20036;-81
2021/07/01 05:43:02;;;;;;;1.85;0.50;;;15.00;1.00;;;;;;5060167;28;20107;-83
2021/07/01 05:45:28;;;;;;;0.50;0.47;;;15.10;1.00;;;;;;5060877;28;20036;-82
2021/07/01 05:47:54;;;;;;;0.63;0.40;;;15.10;1.00;;;;;;5059963;28;20049;-82
2021/07/01 05:50:20;;;;;;;2.92;1.50;;;15.10;1.00;;;;;;5060705;28;20485;-82
2021/07/01 05:52:49;;;;;;;0.60;0.60;;;15.10;1.00;;;;;;5053260;28;20030;-81
2021/07/01 05:55:15;;;;;;;2.33;0.45;;;15.20;1.00;;;;;;5062989;28;20032;-81
2021/07/01 05:57:41;;;;;;;0.95;0.68;;;15.20;1.00;;;;;;5056799;28;20024;-82
2021/07/01 06:00:08;;;;;;;2.30;0.50;;;15.20;1.00;;;;;;5066307;28;20370;-82
2021/07/01 06:02:34;;;;;;;1.48;0.63;;;15.20;1.00;;;;;;5057243;28;20026;-82
2021/07/01 06:05:00;;;;;;;1.42;0.60;;;15.10;1.00;;;;;;5040883;28;20490;-81
2021/07/01 06:07:26;;;;;;;0.60;0.60;;;15.20;1.00;;;;;;5070466;28;20406;-82
2021/07/01 06:09:53;;;;;;;1.80;0.80;;;15.20;1.00;;;;;;5052442;28;20029;-82
2021/07/01 06:12:21;;;;;;;1.52;0.63;;;15.20;1.00;;;;;;5067347;28;20021;-82
2021/07/01 06:14:47;;;;;;;1.50;0.63;;;15.20;1.00;;;;;;5041883;28;20025;-81
2021/07/01 06:17:16;;;;;;;0.90;0.60;;;15.20;1.00;;;;;;5066240;28;20021;-81
2021/07/01 06:19:41;;;;;;;1.30;0.98;;;15.30;1.00;;;;;;5062230;28;20025;-82
2021/07/01 06:22:07;;;;;;;2.63;0.60;;;15.30;1.00;;;;;;5075485;28;20031;-83
2021/07/01 06:24:34;;;;;;;4.13;2.00;;;15.40;1.00;;;;;;5060442;28;20123;-82
2021/07/01 06:27:01;;;;;;;1.58;0.52;;;15.30;1.00;;;;;;5067698;28;20086;-81
2021/07/01 06:29:27;;;;;;;0.85;0.70;;;15.30;1.00;;;;;;5043132;28;20541;-81
2021/07/01 06:31:52;;;;;;;1.05;0.60;;;15.40;1.00;;;;;;5059916;28;20041;-80
2021/07/01 06:34:18;;;;;;;2.33;0.82;;;15.40;1.00;;;;;;5062016;28;20077;-82
2021/07/01 06:36:47;;;;;;;1.83;0.55;;;15.50;1.00;;;;;;5063368;28;20490;-81
2021/07/01 06:39:14;;;;;;;4.80;1.48;;;15.50;1.00;;;;;;5067146;28;20020;-83
2021/07/01 06:41:45;;;;;;;2.90;0.88;;;15.40;1.00;;;;;;5070590;28;20025;-81
2021/07/01 06:44:12;;;;;;;1.02;0.60;;;15.40;1.00;;;;;;5037213;28;20032;-81
2021/07/01 06:46:40;;;;;;;2.83;0.80;;;15.40;1.00;;;;;;5060776;28;20029;-81
2021/07/01 06:49:06;;;;;;;2.00;0.75;;;15.40;1.00;;;;;;5030285;28;20035;-82
2021/07/01 06:51:42;;;;;;;2.78;0.85;;;15.50;1.00;;;;;;5055490;28;20017;-82
2021/07/01 06:54:15;;;;;;;2.47;0.90;;;15.50;1.00;;;;;;5039168;28;20057;-81
2021/07/01 06:56:41;;;;;;;0.70;0.70;;;15.60;1.00;;;;;;5066742;28;20025;-82
2021/07/01 06:59:11;;;;;;;1.77;1.23;;;15.50;1.00;;;;;;5065336;28;20074;-82
2021/07/01 07:01:37;;;;;;;1.13;0.57;;;15.40;1.00;;;;;;5050529;28;20063;-82
2021/07/01 07:04:03;;;;;;;1.38;1.02;;;15.50;1.00;;;;;;5066357;28;20017;-85
2021/07/01 07:06:29;;;;;;;1.17;0.88;;;15.50;1.00;;;;;;5063030;28;20021;-82
2021/07/01 07:08:55;;;;;;;0.90;0.90;;;15.50;1.00;;;;;;5066686;28;20036;-81
2021/07/01 07:11:21;;;;;;;1.52;1.20;;;15.40;1.00;;;;;;5037854;28;20025;-79
2021/07/01 07:13:47;;;;;;;1.30;1.20;;;15.40;1.00;;;;;;5061836;28;20017;-81
2021/07/01 07:16:12;;;;;;;2.13;1.30;;;15.50;1.00;;;;;;5053799;28;20092;-81
2021/07/01 07:18:41;;;;;;;5.28;1.30;;;15.50;1.00;;;;;;5066764;28;20020;-80
2021/07/01 07:21:17;;;;;;;1.92;1.40;;;15.50;1.00;;;;;;5073277;28;20032;-81
2021/07/01 07:23:42;;;;;;;1.27;1.17;;;15.60;1.00;;;;;;5070931;28;20021;-81
2021/07/01 07:26:17;;;;;;;4.20;1.63;;;15.60;1.00;;;;;;5071145;28;20029;-80
2021/07/01 07:28:47;;;;;;;1.08;0.98;;;15.70;1.00;;;;;;5068766;28;20032;-80
2021/07/01 07:31:22;;;;;;;1.40;1.30;;;15.90;1.00;;;;;;5072228;28;20060;-81
2021/07/01 07:33:51;;;;;;;5.47;1.52;;;15.90;1.00;;;;;;5069871;28;20021;-82
2021/07/01 07:36:19;;;;;;;1.40;1.30;;;16.00;1.00;;;;;;5073099;28;20421;-82
2021/07/01 07:38:46;;;;;;;2.03;1.50;;;16.10;1.00;;;;;;5068526;28;20031;-82
2021/07/01 07:41:14;;;;;;;1.30;1.17;;;16.30;1.00;;;;;;5074319;28;20021;-81
2021/07/01 07:43:41;;;;;;;1.17;1.08;;;16.50;1.00;;;;;;5069953;28;20016;-82
2021/07/01 07:46:07;;;;;;;2.17;1.33;;;16.70;99.90;;;;;;5067380;28;20039;-82
2021/07/01 07:48:32;;;;;;;2.15;1.48;;;17.00;99.90;;;;;;5061211;28;20033;-80
2021/07/01 07:51:00;;;;;;;1.20;1.10;;;17.20;99.90;;;;;;5069867;28;21073;-82
2021/07/01 07:53:30;;;;;;;1.73;1.20;;;17.20;99.90;;;;;;5054573;28;20389;-81
2021/07/01 07:56:05;;;;;;;1.55;1.10;;;17.50;99.90;;;;;;5059046;28;20032;-81
2021/07/01 07:58:33;;;;;;;2.30;1.40;;;17.30;99.90;;;;;;5069473;28;20032;-81
2021/07/01 08:01:00;;;;;;;1.48;1.38;;;17.20;99.90;;;;;;5050761;28;20101;-81
2021/07/01 08:03:31;;;;;;;1.33;1.23;;;17.30;99.90;;;;;;5078214;28;20025;-82
2021/07/01 08:05:59;;;;;;;2.22;1.33;;;17.20;99.90;;;;;;5065947;28;20493;-82
2021/07/01 08:08:27;;;;;;;1.42;1.20;;;17.40;99.90;;;;;;5059276;28;20036;-80
2021/07/01 08:10:52;;;;;;;1.77;1.30;;;17.10;99.90;;;;;;5040538;28;20035;-82
2021/07/01 08:13:21;;;;;;;2.03;1.52;;;16.90;99.90;;;;;;5041320;28;20029;-80
2021/07/01 08:15:46;;;;;;;1.10;1.00;;;17.20;99.90;;;;;;5047041;28;20051;-81
2021/07/01 08:18:41;;;;;;;1.35;1.13;;;17.20;99.90;;;;;;5052264;28;20025;-82
2021/07/01 08:21:14;;;;;;;1.08;1.00;;;16.90;99.90;;;;;;5048067;28;20060;-82
2021/07/01 08:23:41;;;;;;;1.38;1.05;;;16.80;99.90;;;;;;5073710;28;20486;-80
2021/07/01 08:26:08;;;;;;;2.25;1.10;;;16.90;99.90;;;;;;5063594;28;20025;-81
2021/07/01 08:28:34;;;;;;;2.72;1.30;;;17.10;99.90;;;;;;5073019;28;20099;-80
2021/07/01 08:31:07;;;;;;;3.08;1.50;;;17.00;99.90;;;;;;5062560;28;20052;-81
2021/07/01 08:33:35;;;;;;;1.30;1.20;;;17.10;99.90;;;;;;5056074;28;20070;-80
2021/07/01 08:36:03;;;;;;;1.88;1.20;;;17.10;99.90;;;;;;5066237;28;20371;-82
2021/07/01 08:38:38;;;;;;;2.30;1.38;;;17.50;99.90;;;;;;5074115;28;20024;-82
2021/07/01 08:41:27;;;;;;;1.02;1.00;;;17.70;98.90;;;;;;5064760;28;20017;-80
2021/07/01 08:43:57;;;;;;;2.00;1.30;;;17.80;1.00;;;;;;5046214;28;20417;-81
2021/07/01 08:46:25;;;;;;;1.60;1.23;;;17.90;99.90;;;;;;5071610;28;20168;-81
2021/07/01 08:49:08;;;;;;;2.05;1.23;;;18.10;99.90;;;;;;5059276;28;20025;-81
2021/07/01 08:51:43;;;;;;;1.67;1.13;;;18.10;99.90;;;;;;5068526;28;20060;-81
2021/07/01 08:54:30;;;;;;;1.55;1.10;;;18.00;99.90;;;;;;5061380;28;20120;-82
2021/07/01 08:56:57;;;;;;;3.63;1.40;;;18.00;99.90;;;;;;5055876;28;20036;-81
2021/07/01 08:59:25;;;;;;;1.30;1.20;;;18.00;99.90;;;;;;5045585;28;20033;-81
2021/07/01 09:01:56;;;;;;;1.38;1.20;;;18.00;99.90;;;;;;5066600;28;20025;-83
2021/07/01 09:04:25;;;;;;;3.38;1.20;;;17.70;99.90;;;;;;5063449;28;20427;-82
2021/07/01 09:07:01;;;;;;;4.05;1.20;;;17.80;99.90;;;;;;5061301;28;20081;-81
2021/07/01 09:09:35;;;;;;;1.95;1.05;;;18.30;99.90;;;;;;5053094;28;20119;-82
2021/07/01 09:12:04;;;;;;;1.33;1.10;;;18.60;94.30;;;;;;5067157;28;20112;-80
2021/07/01 09:14:31;;;;;;;1.58;1.48;;;18.60;1.00;;;;;;5054604;28;20028;-81
2021/07/01 09:17:00;;;;;;;2.75;1.30;;;18.60;1.00;;;;;;5064086;28;20021;-82
2021/07/01 09:19:27;;;;;;;1.88;1.20;;;18.60;1.00;;;;;;5053317;28;20021;-82
2021/07/01 09:21:53;;;;;;;1.92;1.70;;;18.70;1.00;;;;;;5067446;28;20035;-81
2021/07/01 09:24:19;;;;;;;1.40;1.30;;;18.70;99.90;;;;;;5051291;28;20028;-80
2021/07/01 09:26:55;;;;;;;1.33;1.23;;;18.40;43.10;;;;;;5068021;28;20109;-82
2021/07/01 09:29:21;;;;;;;3.00;1.10;;;18.40;60.30;;;;;;5051440;28;20025;-82
2021/07/01 09:31:49;;;;;;;2.42;1.50;;;18.50;48.60;;;;;;5062909;28;20037;-80
2021/07/01 09:34:17;;;;;;;1.30;1.20;;;18.70;75.00;;;;;;5067122;28;20051;-80
2021/07/01 09:36:43;;;;;;;1.63;1.52;;;18.90;38.00;;;;;;5069548;28;20029;-79
2021/07/01 09:39:10;;;;;;;1.48;1.33;;;18.80;73.00;;;;;;5050912;28;20075;-79
2021/07/01 09:41:36;;;;;;;4.05;1.90;;;18.80;58.90;;;;;;5065276;28;20373;-79
2021/07/01 09:44:02;;;;;;;1.40;1.30;;;18.90;53.50;;;;;;5052272;28;20045;-79
2021/07/01 09:46:30;;;;;;;3.50;1.20;;;18.70;95.50;;;;;;5047263;28;20117;-80
2021/07/01 09:48:59;;;;;;;2.35;1.38;;;19.00;99.90;;;;;;5057185;28;20151;-79
2021/07/01 09:51:27;;;;;;;1.40;1.30;;;19.20;99.90;;;;;;5040253;28;20507;-81
2021/07/01 09:53:54;;;;;;;1.33;1.23;;;18.80;99.90;;;;;;5049329;28;20045;-81
2021/07/01 09:56:36;;;;;;;1.45;1.33;;;19.10;99.90;;;;;;5044616;28;20036;-81
2021/07/01 09:59:03;;;;;;;1.42;1.30;;;19.30;99.90;;;;;;5061450;28;20506;-81
2021/07/01 10:01:41;;;;;;;1.30;1.20;;;19.50;99.90;;;;;;5051167;28;20025;-80
2021/07/01 10:04:08;;;;;;;1.70;1.60;;;19.50;99.90;;;;;;5064384;28;20051;-80
2021/07/01 10:06:34;;;;;;;2.13;1.50;;;19.40;99.90;;;;;;5059035;28;20060;-80
2021/07/01 10:09:00;;;;;;;1.30;1.20;;;19.10;99.90;;;;;;5066567;28;20029;-80
2021/07/01 10:11:37;;;;;;;2.95;1.38;;;18.90;99.90;;;;;;5043828;28;20085;-81
2021/07/01 10:14:08;;;;;;;1.52;1.42;;;18.80;99.90;;;;;;5077922;28;20512;-80
2021/07/01 10:16:35;;;;;;;2.80;1.45;;;18.50;99.90;;;;;;5079522;28;20025;-81
2021/07/01 10:19:02;;;;;;;1.75;1.30;;;18.40;99.90;;;;;;5049303;28;20032;-81
2021/07/01 10:21:30;;;;;;;3.40;1.30;;;18.10;99.90;;;;;;5058299;28;20100;-80
2021/07/01 10:24:10;;;;;;;1.58;1.48;;;18.00;99.90;;;;;;5059211;28;20021;-81
2021/07/01 10:26:54;;;;;;;1.08;1.05;;;17.90;99.90;;;;;;5039807;28;20036;-80
2021/07/01 10:29:20;;;;;;;1.50;1.40;;;18.10;99.90;;;;;;5038184;28;20032;-80
2021/07/01 10:31:52;;;;;;;1.30;1.20;;;18.00;99.90;;;;;;5036221;28;20021;-81
2021/07/01 10:34:19;;;;;;;1.02;1.02;;;17.90;99.90;;;;;;5036370;28;20033;-82
2021/07/01 10:36:45;;;;;;;4.88;1.10;;;17.80;99.90;;;;;;5037420;28;20041;-79
2021/07/01 10:39:10;;;;;;;1.80;0.93;;;17.90;99.90;;;;;;5059806;28;20020;-80
2021/07/01 10:41:39;;;;;;;1.70;1.10;;;17.70;99.90;;;;;;5044447;28;20036;-82
2021/07/01 10:44:19;;;;;;;3.00;1.52;;;17.60;99.90;;;;;;5020623;28;20045;-80
2021/07/01 10:46:47;;;;;;;0.93;0.93;;;17.30;99.90;;;;;;5063354;28;20025;-81
2021/07/01 10:49:13;;;;;;;3.08;1.95;;;16.80;99.90;;;;;;5055323;28;20026;-78
2021/07/01 10:51:54;;;;;;;3.25;1.10;;;16.80;99.90;;;;;;5064345;28;20024;-78
2021/07/01 10:54:19;;;;;;;1.00;1.00;;;16.30;99.90;;;;;;5039870;28;20029;-80
2021/07/01 10:56:49;;;;;;;1.92;1.35;;;16.00;99.90;;;;;;5042522;28;20408;-79
2021/07/01 10:59:14;;;;;;;1.70;1.20;;;16.20;1.00;;;;;;5053197;28;20480;-78
2021/07/01 11:01:41;;;;;;;1.02;0.98;;;16.20;1.00;;;;;;5063750;28;20020;-79
2021/07/01 11:04:09;;;;;;;1.15;0.95;;;16.10;1.00;;;;;;5067038;28;20047;-79
2021/07/01 11:06:37;;;;;;;1.23;1.13;;;15.90;1.00;;;;;;5056569;28;20045;-79
2021/07/01 11:09:05;;;;;;;1.33;1.23;;;16.10;1.00;;;;;;5067392;28;20017;-78
2021/07/01 11:11:31;;;;;;;0.90;0.90;;;16.20;1.00;;;;;;5055345;28;20025;-79
2021/07/01 11:14:01;;;;;;;1.55;1.27;;;16.50;1.00;;;;;;5068159;28;20029;-79
2021/07/01 11:16:38;;;;;;;2.70;1.02;;;16.60;1.00;;;;;;5061165;28;20052;-79
2021/07/01 11:19:07;;;;;;;1.20;1.10;;;16.70;99.90;;;;;;5057439;28;20121;-80
2021/07/01 11:21:34;;;;;;;1.73;1.63;;;16.90;1.00;;;;;;5074588;28;20143;-80
2021/07/01 11:24:13;;;;;;;4.70;1.27;;;16.90;99.90;;;;;;5068277;28;20028;-78
2021/07/01 11:26:39;;;;;;;1.58;1.48;;;17.20;1.00;;;;;;5060098;28;20026;-81
2021/07/01 11:29:09;;;;;;;1.65;1.48;;;17.40;99.90;;;;;;5060334;28;20480;-80
2021/07/01 11:31:37;;;;;;;2.47;1.33;;;17.50;99.90;;;;;;5045391;28;20027;-81
2021/07/01 11:34:03;;;;;;;1.63;1.30;;;17.50;99.90;;;;;;5043482;28;20021;-80
2021/07/01 11:36:29;;;;;;;2.45;1.55;;;17.40;99.90;;;;;;5070364;28;20025;-81
2021/07/01 11:39:10;;;;;;;2.47;1.55;;;17.50;99.90;;;;;;5063752;28;20072;-81
2021/07/01 11:41:36;;;;;;;1.60;1.50;;;17.60;99.90;;;;;;5046856;28;20033;-81
2021/07/01 11:44:03;;;;;;;1.65;1.52;;;17.70;99.90;;;;;;5050181;28;20021;-81
2021/07/01 11:46:29;;;;;;;3.15;1.77;;;17.60;17.80;;;;;;5048139;28;20028;-81
2021/07/01 11:48:56;;;;;;;2.10;2.00;;;17.70;48.30;;;;;;5035385;28;20029;-80
2021/07/01 11:51:24;;;;;;;1.77;1.67;;;17.80;29.30;;;;;;5067438;28;20024;-80
2021/07/01 11:53:50;;;;;;;3.17;1.90;;;18.00;1.00;;;;;;5068324;28;20020;-80
2021/07/01 11:56:16;;;;;;;1.65;1.52;;;18.00;1.00;;;;;;5075647;28;20166;-80
2021/07/01 11:58:44;;;;;;;4.55;1.48;;;18.30;1.00;;;;;;5063876;28;20024;-81
2021/07/01 12:01:09;;;;;;;1.55;1.45;;;18.40;1.00;;;;;;5056216;28;20406;-80
2021/07/01 12:03:38;;;;;;;2.20;1.60;;;18.30;1.00;;;;;;5065095;28;20046;-81
2021/07/01 12:06:04;;;;;;;3.45;1.50;;;18.30;99.90;;;;;;5046986;28;20048;-81
2021/07/01 12:08:34;;;;;;;3.35;1.98;;;18.30;1.00;;;;;;5071115;28;20058;-80
2021/07/01 12:11:01;;;;;;;1.98;1.77;;;18.40;94.20;;;;;;5068481;28;20056;-81
2021/07/01 12:13:33;;;;;;;1.73;1.13;;;18.60;99.90;;;;;;5063837;28;20021;-79
2021/07/01 12:16:06;;;;;;;2.80;1.90;;;18.20;99.90;;;;;;5062297;28;20141;-79
2021/07/01 12:18:44;;;;;;;2.50;2.30;;;18.20;99.90;;;;;;5062262;28;20032;-80
2021/07/01 12:21:15;;;;;;;2.17;1.95;;;18.20;99.90;;;;;;5039468;28;20248;-80
2021/07/01 12:23:45;;;;;;;1.67;1.58;;;18.40;99.90;;;;;;5063339;28;20056;-80
2021/07/01 12:26:32;;;;;;;2.20;2.00;;;18.50;99.90;;;;;;5067970;28;20086;-80
2021/07/01 12:28:58;;;;;;;2.05;1.85;;;18.40;99.90;;;;;;5064454;28;20501;-81
2021/07/01 12:31:25;;;;;;;1.80;1.67;;;18.60;99.90;;;;;;5067654;28;20036;-80
2021/07/01 12:34:03;;;;;;;2.30;1.85;;;18.60;99.90;;;;;;5059997;28;20509;-81
2021/07/01 12:36:40;;;;;;;1.73;1.63;;;18.70;99.90;;;;;;5061231;28;20029;-80
2021/07/01 12:39:12;;;;;;;2.20;1.65;;;18.80;99.90;;;;;;5057064;28;20016;-80
2021/07/01 12:41:51;;;;;;;2.25;2.03;;;18.40;99.90;;;;;;5036383;28;20427;-80
2021/07/01 12:44:27;;;;;;;2.38;2.13;;;18.40;99.90;;;;;;5052843;28;20021;-80
2021/07/01 12:46:55;;;;;;;2.45;2.20;;;18.30;99.90;;;;;;5058118;28;20022;-80
2021/07/01 12:49:29;;;;;;;2.42;2.20;;;18.10;99.90;;;;;;5063533;28;20025;-80
2021/07/01 12:52:10;;;;;;;3.13;2.10;;;18.50;99.90;;;;;;5058259;28;20062;-80
2021/07/01 12:54:35;;;;;;;2.63;2.20;;;18.50;99.90;;;;;;5059450;28;20029;-80
2021/07/01 12:57:02;;;;;;;3.13;2.20;;;18.60;99.90;;;;;;5067644;28;20415;-81
2021/07/01 12:59:36;;;;;;;2.28;2.03;;;18.50;99.90;;;;;;5068231;28;20028;-81